sensor_id;sensor_type;location;lat;lon;timestamp;temperature;humidity
54461;DHT22;69977;49.414;11.010;2024-03-02T00:00:19;5.80;99.90
54461;DHT22;69977;49.414;11.010;2024-03-02T00:02:49;5.80;99.90
54461;DHT22;69977;49.414;11.010;2024-03-02T00:07:43;5.80;99.90
54461;DHT22;69977;49.414;11.010;2024-03-02T00:10:16;5.80;99.90
54461;DHT22;69977;49.414;11.010;2024-03-02T00:12:42;5.80;99.90
54461;DHT22;69977;49.414;11.010;2024-03-02T00:17:46;5.90;99.90
54461;DHT22;69977;49.414;11.010;2024-03-02T00:20:18;5.90;99.90
54461;DHT22;69977;49.414;11.010;2024-03-02T00:22:47;5.90;99.90
54461;DHT22;69977;49.414;11.010;2024-03-02T00:25:12;6.00;99.90
54461;DHT22;69977;49.414;11.010;2024-03-02T00:27:38;6.00;99.90
54461;DHT22;69977;49.414;11.010;2024-03-02T00:30:46;6.00;99.90
54461;DHT22;69977;49.414;11.010;2024-03-02T00:33:16;6.00;99.90
54461;DHT22;69977;49.414;11.010;2024-03-02T00:35:46;6.10;99.90
54461;DHT22;69977;49.414;11.010;2024-03-02T00:38:12;6.10;99.90
54461;DHT22;69977;49.414;11.010;2024-03-02T00:40:40;6.10;99.90
54461;DHT22;69977;49.414;11.010;2024-03-02T00:43:06;6.10;99.90
54461;DHT22;69977;49.414;11.010;2024-03-02T00:45:34;6.20;99.90
54461;DHT22;69977;49.414;11.010;2024-03-02T00:47:59;6.20;99.90
54461;DHT22;69977;49.414;11.010;2024-03-02T00:50:25;6.20;99.90
54461;DHT22;69977;49.414;11.010;2024-03-02T00:52:51;6.20;99.90
54461;DHT22;69977;49.414;11.010;2024-03-02T00:55:17;6.20;99.90
54461;DHT22;69977;49.414;11.010;2024-03-02T00:57:44;6.10;99.90
54461;DHT22;69977;49.414;11.010;2024-03-02T01:00:11;6.10;99.90
54461;DHT22;69977;49.414;11.010;2024-03-02T01:02:40;6.10;99.90
54461;DHT22;69977;49.414;11.010;2024-03-02T01:05:08;6.10;99.90
54461;DHT22;69977;49.414;11.010;2024-03-02T01:07:34;6.10;99.90
54461;DHT22;69977;49.414;11.010;2024-03-02T01:09:59;6.10;99.90
54461;DHT22;69977;49.414;11.010;2024-03-02T01:12:25;6.00;99.90
54461;DHT22;69977;49.414;11.010;2024-03-02T01:14:51;5.90;99.90
54461;DHT22;69977;49.414;11.010;2024-03-02T01:17:17;5.90;99.90
54461;DHT22;69977;49.414;11.010;2024-03-02T01:19:43;5.90;99.90
54461;DHT22;69977;49.414;11.010;2024-03-02T01:22:09;5.80;99.90
54461;DHT22;69977;49.414;11.010;2024-03-02T01:24:34;5.90;99.90
54461;DHT22;69977;49.414;11.010;2024-03-02T01:27:00;5.80;99.90
54461;DHT22;69977;49.414;11.010;2024-03-02T01:29:26;5.80;99.90
54461;DHT22;69977;49.414;11.010;2024-03-02T01:31:52;5.80;99.90
54461;DHT22;69977;49.414;11.010;2024-03-02T01:34:19;5.80;99.90
54461;DHT22;69977;49.414;11.010;2024-03-02T01:36:45;5.80;99.90
54461;DHT22;69977;49.414;11.010;2024-03-02T01:39:11;5.80;99.90
54461;DHT22;69977;49.414;11.010;2024-03-02T01:41:37;5.80;99.90
54461;DHT22;69977;49.414;11.010;2024-03-02T01:44:03;5.80;99.90
54461;DHT22;69977;49.414;11.010;2024-03-02T01:46:29;5.80;99.90
54461;DHT22;69977;49.414;11.010;2024-03-02T01:48:55;5.70;99.90
54461;DHT22;69977;49.414;11.010;2024-03-02T01:51:21;5.70;99.90
54461;DHT22;69977;49.414;11.010;2024-03-02T01:53:47;5.70;99.90
54461;DHT22;69977;49.414;11.010;2024-03-02T01:56:13;5.70;99.90
54461;DHT22;69977;49.414;11.010;2024-03-02T01:58:38;5.70;99.90
54461;DHT22;69977;49.414;11.010;2024-03-02T02:01:04;5.60;99.90
54461;DHT22;69977;49.414;11.010;2024-03-02T02:03:30;5.50;99.90
54461;DHT22;69977;49.414;11.010;2024-03-02T02:05:56;5.50;99.90
54461;DHT22;69977;49.414;11.010;2024-03-02T02:08:22;5.40;99.90
54461;DHT22;69977;49.414;11.010;2024-03-02T02:10:48;5.50;99.90
54461;DHT22;69977;49.414;11.010;2024-03-02T02:13:36;5.50;99.90
54461;DHT22;69977;49.414;11.010;2024-03-02T02:16:06;5.50;99.90
54461;DHT22;69977;49.414;11.010;2024-03-02T02:18:32;5.50;99.90
54461;DHT22;69977;49.414;11.010;2024-03-02T02:20:58;5.40;99.90
54461;DHT22;69977;49.414;11.010;2024-03-02T02:23:24;5.40;99.90
54461;DHT22;69977;49.414;11.010;2024-03-02T02:25:50;5.40;99.90
54461;DHT22;69977;49.414;11.010;2024-03-02T02:28:16;5.40;99.90
54461;DHT22;69977;49.414;11.010;2024-03-02T02:30:42;5.40;99.90
54461;DHT22;69977;49.414;11.010;2024-03-02T02:33:08;5.30;99.90
54461;DHT22;69977;49.414;11.010;2024-03-02T02:35:34;5.40;99.90
54461;DHT22;69977;49.414;11.010;2024-03-02T02:38:00;5.40;99.90
54461;DHT22;69977;49.414;11.010;2024-03-02T02:40:27;5.40;99.90
54461;DHT22;69977;49.414;11.010;2024-03-02T02:42:57;5.30;99.90
54461;DHT22;69977;49.414;11.010;2024-03-02T02:45:22;5.40;99.90
54461;DHT22;69977;49.414;11.010;2024-03-02T02:47:49;5.40;99.90
54461;DHT22;69977;49.414;11.010;2024-03-02T02:50:15;5.40;99.90
54461;DHT22;69977;49.414;11.010;2024-03-02T02:52:42;5.40;99.90
54461;DHT22;69977;49.414;11.010;2024-03-02T02:55:10;5.50;99.90
54461;DHT22;69977;49.414;11.010;2024-03-02T02:57:37;5.50;99.90
54461;DHT22;69977;49.414;11.010;2024-03-02T03:00:11;5.50;99.90
54461;DHT22;69977;49.414;11.010;2024-03-02T03:02:46;5.50;99.90
54461;DHT22;69977;49.414;11.010;2024-03-02T03:05:14;5.50;99.90
54461;DHT22;69977;49.414;11.010;2024-03-02T03:07:40;5.50;99.90
54461;DHT22;69977;49.414;11.010;2024-03-02T03:10:07;5.50;99.90
54461;DHT22;69977;49.414;11.010;2024-03-02T03:12:34;5.50;99.90
54461;DHT22;69977;49.414;11.010;2024-03-02T03:15:00;5.60;99.90
54461;DHT22;69977;49.414;11.010;2024-03-02T03:17:26;5.60;99.90
54461;DHT22;69977;49.414;11.010;2024-03-02T03:19:53;5.70;99.90
54461;DHT22;69977;49.414;11.010;2024-03-02T03:22:19;5.70;99.90
54461;DHT22;69977;49.414;11.010;2024-03-02T03:24:45;5.60;99.90
54461;DHT22;69977;49.414;11.010;2024-03-02T03:27:11;5.70;99.90
54461;DHT22;69977;49.414;11.010;2024-03-02T03:29:37;5.70;99.90
54461;DHT22;69977;49.414;11.010;2024-03-02T03:32:04;5.80;99.90
54461;DHT22;69977;49.414;11.010;2024-03-02T03:34:33;5.70;99.90
54461;DHT22;69977;49.414;11.010;2024-03-02T03:36:59;5.80;99.90
54461;DHT22;69977;49.414;11.010;2024-03-02T03:39:25;5.80;99.90
54461;DHT22;69977;49.414;11.010;2024-03-02T03:41:50;5.80;99.90
54461;DHT22;69977;49.414;11.010;2024-03-02T03:44:17;5.90;99.90
54461;DHT22;69977;49.414;11.010;2024-03-02T03:46:42;5.90;99.90
54461;DHT22;69977;49.414;11.010;2024-03-02T03:49:08;5.90;99.90
54461;DHT22;69977;49.414;11.010;2024-03-02T03:51:34;5.90;99.90
54461;DHT22;69977;49.414;11.010;2024-03-02T03:54:01;5.90;99.90
54461;DHT22;69977;49.414;11.010;2024-03-02T03:56:27;5.90;99.90
54461;DHT22;69977;49.414;11.010;2024-03-02T03:58:52;5.90;99.90
54461;DHT22;69977;49.414;11.010;2024-03-02T04:01:18;5.90;99.90
54461;DHT22;69977;49.414;11.010;2024-03-02T04:03:44;5.90;99.90
54461;DHT22;69977;49.414;11.010;2024-03-02T04:06:10;5.90;99.90
54461;DHT22;69977;49.414;11.010;2024-03-02T04:08:36;5.80;99.90
54461;DHT22;69977;49.414;11.010;2024-03-02T04:11:02;5.80;99.90
54461;DHT22;69977;49.414;11.010;2024-03-02T04:13:28;5.80;99.90
54461;DHT22;69977;49.414;11.010;2024-03-02T04:15:54;5.70;99.90
54461;DHT22;69977;49.414;11.010;2024-03-02T04:18:20;5.70;99.90
54461;DHT22;69977;49.414;11.010;2024-03-02T04:20:46;5.70;99.90
54461;DHT22;69977;49.414;11.010;2024-03-02T04:23:12;5.60;99.90
54461;DHT22;69977;49.414;11.010;2024-03-02T04:25:37;5.60;99.90
54461;DHT22;69977;49.414;11.010;2024-03-02T04:28:03;5.60;99.90
54461;DHT22;69977;49.414;11.010;2024-03-02T04:30:29;5.50;99.90
54461;DHT22;69977;49.414;11.010;2024-03-02T04:32:55;5.50;99.90
54461;DHT22;69977;49.414;11.010;2024-03-02T04:35:21;5.50;99.90
54461;DHT22;69977;49.414;11.010;2024-03-02T04:37:47;5.40;99.90
54461;DHT22;69977;49.414;11.010;2024-03-02T04:40:13;5.40;99.90
54461;DHT22;69977;49.414;11.010;2024-03-02T04:42:39;5.30;99.90
54461;DHT22;69977;49.414;11.010;2024-03-02T04:45:05;5.40;99.90
54461;DHT22;69977;49.414;11.010;2024-03-02T04:47:32;5.30;99.90
54461;DHT22;69977;49.414;11.010;2024-03-02T04:49:58;5.20;99.90
54461;DHT22;69977;49.414;11.010;2024-03-02T04:52:24;5.20;99.90
54461;DHT22;69977;49.414;11.010;2024-03-02T04:54:50;5.20;99.90
54461;DHT22;69977;49.414;11.010;2024-03-02T04:57:34;5.10;99.90
54461;DHT22;69977;49.414;11.010;2024-03-02T05:00:00;4.90;99.90
54461;DHT22;69977;49.414;11.010;2024-03-02T05:02:26;4.90;99.90
54461;DHT22;69977;49.414;11.010;2024-03-02T05:04:52;4.90;99.90
54461;DHT22;69977;49.414;11.010;2024-03-02T05:07:18;5.00;99.90
54461;DHT22;69977;49.414;11.010;2024-03-02T05:09:44;4.90;99.90
54461;DHT22;69977;49.414;11.010;2024-03-02T05:12:10;4.90;99.90
54461;DHT22;69977;49.414;11.010;2024-03-02T05:14:36;4.90;99.90
54461;DHT22;69977;49.414;11.010;2024-03-02T05:17:03;5.00;99.90
54461;DHT22;69977;49.414;11.010;2024-03-02T05:19:29;4.90;99.90
54461;DHT22;69977;49.414;11.010;2024-03-02T05:21:55;4.90;99.90
54461;DHT22;69977;49.414;11.010;2024-03-02T05:24:20;4.90;99.90
54461;DHT22;69977;49.414;11.010;2024-03-02T05:26:46;4.90;99.90
54461;DHT22;69977;49.414;11.010;2024-03-02T05:29:12;4.90;99.90
54461;DHT22;69977;49.414;11.010;2024-03-02T05:31:38;4.80;99.90
54461;DHT22;69977;49.414;11.010;2024-03-02T05:34:04;4.80;99.90
54461;DHT22;69977;49.414;11.010;2024-03-02T05:36:31;4.80;99.90
54461;DHT22;69977;49.414;11.010;2024-03-02T05:38:57;4.80;99.90
54461;DHT22;69977;49.414;11.010;2024-03-02T05:41:23;4.70;99.90
54461;DHT22;69977;49.414;11.010;2024-03-02T05:43:49;4.80;99.90
54461;DHT22;69977;49.414;11.010;2024-03-02T05:46:15;4.90;99.90
54461;DHT22;69977;49.414;11.010;2024-03-02T05:48:41;4.80;99.90
54461;DHT22;69977;49.414;11.010;2024-03-02T05:51:06;4.90;99.90
54461;DHT22;69977;49.414;11.010;2024-03-02T05:53:32;4.70;99.90
54461;DHT22;69977;49.414;11.010;2024-03-02T05:55:59;4.70;99.90
54461;DHT22;69977;49.414;11.010;2024-03-02T05:58:25;4.60;99.90
54461;DHT22;69977;49.414;11.010;2024-03-02T06:01:09;4.70;99.90
54461;DHT22;69977;49.414;11.010;2024-03-02T06:03:35;4.70;99.90
54461;DHT22;69977;49.414;11.010;2024-03-02T06:06:01;4.60;99.90
54461;DHT22;69977;49.414;11.010;2024-03-02T06:08:27;4.50;99.90
54461;DHT22;69977;49.414;11.010;2024-03-02T06:10:53;4.50;99.90
54461;DHT22;69977;49.414;11.010;2024-03-02T06:13:19;4.60;99.90
54461;DHT22;69977;49.414;11.010;2024-03-02T06:15:44;4.60;99.90
54461;DHT22;69977;49.414;11.010;2024-03-02T06:18:10;4.50;99.90
54461;DHT22;69977;49.414;11.010;2024-03-02T06:20:36;4.40;99.90
54461;DHT22;69977;49.414;11.010;2024-03-02T06:23:03;4.40;99.90
54461;DHT22;69977;49.414;11.010;2024-03-02T06:25:29;4.40;99.90
54461;DHT22;69977;49.414;11.010;2024-03-02T06:27:55;4.50;99.90
54461;DHT22;69977;49.414;11.010;2024-03-02T06:30:21;4.40;99.90
54461;DHT22;69977;49.414;11.010;2024-03-02T06:32:46;4.30;99.90
54461;DHT22;69977;49.414;11.010;2024-03-02T06:35:12;4.40;99.90
54461;DHT22;69977;49.414;11.010;2024-03-02T06:37:38;4.30;99.90
54461;DHT22;69977;49.414;11.010;2024-03-02T06:40:07;4.30;99.90
54461;DHT22;69977;49.414;11.010;2024-03-02T06:42:34;4.30;99.90
54461;DHT22;69977;49.414;11.010;2024-03-02T06:45:01;4.20;99.90
54461;DHT22;69977;49.414;11.010;2024-03-02T06:47:27;4.10;99.90
54461;DHT22;69977;49.414;11.010;2024-03-02T06:49:53;4.30;99.90
54461;DHT22;69977;49.414;11.010;2024-03-02T06:52:19;4.30;99.90
54461;DHT22;69977;49.414;11.010;2024-03-02T06:54:46;4.40;99.90
54461;DHT22;69977;49.414;11.010;2024-03-02T06:57:12;4.40;99.90
54461;DHT22;69977;49.414;11.010;2024-03-02T06:59:38;4.50;99.90
54461;DHT22;69977;49.414;11.010;2024-03-02T07:02:04;4.60;99.90
54461;DHT22;69977;49.414;11.010;2024-03-02T07:04:30;4.60;99.90
54461;DHT22;69977;49.414;11.010;2024-03-02T07:06:56;4.70;99.90
54461;DHT22;69977;49.414;11.010;2024-03-02T07:09:21;4.80;99.90
54461;DHT22;69977;49.414;11.010;2024-03-02T07:11:48;4.90;99.90
54461;DHT22;69977;49.414;11.010;2024-03-02T07:14:15;5.00;99.90
54461;DHT22;69977;49.414;11.010;2024-03-02T07:16:41;5.00;99.90
54461;DHT22;69977;49.414;11.010;2024-03-02T07:19:09;5.20;99.90
54461;DHT22;69977;49.414;11.010;2024-03-02T07:21:35;5.30;99.90
54461;DHT22;69977;49.414;11.010;2024-03-02T07:24:00;5.50;99.90
54461;DHT22;69977;49.414;11.010;2024-03-02T07:26:30;5.60;99.90
54461;DHT22;69977;49.414;11.010;2024-03-02T07:28:57;5.80;99.90
54461;DHT22;69977;49.414;11.010;2024-03-02T07:31:23;6.00;99.90
54461;DHT22;69977;49.414;11.010;2024-03-02T07:33:49;6.20;99.90
54461;DHT22;69977;49.414;11.010;2024-03-02T07:36:15;6.30;99.90
54461;DHT22;69977;49.414;11.010;2024-03-02T07:38:41;6.50;99.90
54461;DHT22;69977;49.414;11.010;2024-03-02T07:41:08;6.50;99.90
54461;DHT22;69977;49.414;11.010;2024-03-02T07:43:34;6.60;99.90
54461;DHT22;69977;49.414;11.010;2024-03-02T07:46:00;6.70;99.90
54461;DHT22;69977;49.414;11.010;2024-03-02T07:48:26;6.70;99.90
54461;DHT22;69977;49.414;11.010;2024-03-02T07:50:52;6.80;99.90
54461;DHT22;69977;49.414;11.010;2024-03-02T07:53:18;6.90;99.90
54461;DHT22;69977;49.414;11.010;2024-03-02T07:55:44;6.90;99.90
54461;DHT22;69977;49.414;11.010;2024-03-02T07:58:10;7.00;99.90
54461;DHT22;69977;49.414;11.010;2024-03-02T08:00:39;7.10;99.90
54461;DHT22;69977;49.414;11.010;2024-03-02T08:03:06;7.10;99.90
54461;DHT22;69977;49.414;11.010;2024-03-02T08:05:32;7.20;99.90
54461;DHT22;69977;49.414;11.010;2024-03-02T08:07:58;7.20;99.90
54461;DHT22;69977;49.414;11.010;2024-03-02T08:10:24;7.20;99.90
54461;DHT22;69977;49.414;11.010;2024-03-02T08:12:49;7.20;99.90
54461;DHT22;69977;49.414;11.010;2024-03-02T08:15:15;7.20;99.90
54461;DHT22;69977;49.414;11.010;2024-03-02T08:17:41;7.20;99.90
54461;DHT22;69977;49.414;11.010;2024-03-02T08:20:11;7.20;99.90
54461;DHT22;69977;49.414;11.010;2024-03-02T08:22:38;7.30;99.90
54461;DHT22;69977;49.414;11.010;2024-03-02T08:25:04;7.30;99.90
54461;DHT22;69977;49.414;11.010;2024-03-02T08:27:31;7.40;99.90
54461;DHT22;69977;49.414;11.010;2024-03-02T08:29:57;7.40;99.90
54461;DHT22;69977;49.414;11.010;2024-03-02T08:32:23;7.50;99.90
54461;DHT22;69977;49.414;11.010;2024-03-02T08:34:49;7.50;99.90
54461;DHT22;69977;49.414;11.010;2024-03-02T08:37:15;7.50;99.90
54461;DHT22;69977;49.414;11.010;2024-03-02T08:39:41;7.60;99.90
54461;DHT22;69977;49.414;11.010;2024-03-02T08:42:07;7.80;99.90
54461;DHT22;69977;49.414;11.010;2024-03-02T08:44:33;7.80;99.90
54461;DHT22;69977;49.414;11.010;2024-03-02T08:46:59;7.90;99.90
54461;DHT22;69977;49.414;11.010;2024-03-02T08:49:25;8.00;99.90
54461;DHT22;69977;49.414;11.010;2024-03-02T08:51:51;8.00;99.90
54461;DHT22;69977;49.414;11.010;2024-03-02T08:54:21;8.10;99.90
54461;DHT22;69977;49.414;11.010;2024-03-02T08:56:48;8.10;99.90
54461;DHT22;69977;49.414;11.010;2024-03-02T08:59:14;8.30;99.90
54461;DHT22;69977;49.414;11.010;2024-03-02T09:01:40;8.40;99.90
54461;DHT22;69977;49.414;11.010;2024-03-02T09:04:07;8.50;99.90
54461;DHT22;69977;49.414;11.010;2024-03-02T09:06:36;8.60;99.90
54461;DHT22;69977;49.414;11.010;2024-03-02T09:09:02;8.50;99.90
54461;DHT22;69977;49.414;11.010;2024-03-02T09:11:30;8.60;99.90
54461;DHT22;69977;49.414;11.010;2024-03-02T09:13:56;8.80;99.90
54461;DHT22;69977;49.414;11.010;2024-03-02T09:16:23;8.80;99.90
54461;DHT22;69977;49.414;11.010;2024-03-02T09:18:49;8.80;99.90
54461;DHT22;69977;49.414;11.010;2024-03-02T09:21:15;9.00;99.90
54461;DHT22;69977;49.414;11.010;2024-03-02T09:23:41;9.10;99.90
54461;DHT22;69977;49.414;11.010;2024-03-02T09:26:07;9.20;99.90
54461;DHT22;69977;49.414;11.010;2024-03-02T09:28:33;9.20;99.90
54461;DHT22;69977;49.414;11.010;2024-03-02T09:31:00;9.20;99.90
54461;DHT22;69977;49.414;11.010;2024-03-02T09:33:26;9.40;99.90
54461;DHT22;69977;49.414;11.010;2024-03-02T09:35:52;9.40;99.90
54461;DHT22;69977;49.414;11.010;2024-03-02T09:38:18;9.40;99.90
54461;DHT22;69977;49.414;11.010;2024-03-02T09:40:44;9.50;99.90
54461;DHT22;69977;49.414;11.010;2024-03-02T09:43:10;9.60;99.90
54461;DHT22;69977;49.414;11.010;2024-03-02T09:45:36;9.70;99.90
54461;DHT22;69977;49.414;11.010;2024-03-02T09:48:02;9.80;99.90
54461;DHT22;69977;49.414;11.010;2024-03-02T09:50:28;9.90;99.90
54461;DHT22;69977;49.414;11.010;2024-03-02T09:52:54;10.00;99.90
54461;DHT22;69977;49.414;11.010;2024-03-02T09:55:20;10.00;99.90
54461;DHT22;69977;49.414;11.010;2024-03-02T09:57:46;10.00;99.90
54461;DHT22;69977;49.414;11.010;2024-03-02T10:00:14;10.20;99.90
54461;DHT22;69977;49.414;11.010;2024-03-02T10:02:43;10.20;99.90
54461;DHT22;69977;49.414;11.010;2024-03-02T10:05:10;10.30;99.90
54461;DHT22;69977;49.414;11.010;2024-03-02T10:07:36;10.30;99.90
54461;DHT22;69977;49.414;11.010;2024-03-02T10:10:15;10.30;99.90
54461;DHT22;69977;49.414;11.010;2024-03-02T10:12:41;10.40;99.90
54461;DHT22;69977;49.414;11.010;2024-03-02T10:15:07;10.60;99.90
54461;DHT22;69977;49.414;11.010;2024-03-02T10:17:35;10.70;99.90
54461;DHT22;69977;49.414;11.010;2024-03-02T10:20:21;10.60;99.90
54461;DHT22;69977;49.414;11.010;2024-03-02T10:22:47;10.80;99.90
54461;DHT22;69977;49.414;11.010;2024-03-02T10:25:29;11.10;99.90
54461;DHT22;69977;49.414;11.010;2024-03-02T10:27:57;11.20;99.90
54461;DHT22;69977;49.414;11.010;2024-03-02T10:30:24;11.20;99.90
54461;DHT22;69977;49.414;11.010;2024-03-02T10:32:50;11.20;99.90
54461;DHT22;69977;49.414;11.010;2024-03-02T10:35:17;11.20;99.90
54461;DHT22;69977;49.414;11.010;2024-03-02T10:37:42;11.30;99.90
54461;DHT22;69977;49.414;11.010;2024-03-02T10:40:10;11.30;99.90
54461;DHT22;69977;49.414;11.010;2024-03-02T10:42:38;11.40;99.90
54461;DHT22;69977;49.414;11.010;2024-03-02T10:45:11;11.60;99.90
54461;DHT22;69977;49.414;11.010;2024-03-02T10:47:38;11.60;99.90
54461;DHT22;69977;49.414;11.010;2024-03-02T10:50:07;11.70;99.90
54461;DHT22;69977;49.414;11.010;2024-03-02T10:52:37;11.70;99.90
54461;DHT22;69977;49.414;11.010;2024-03-02T10:55:03;11.70;99.90
54461;DHT22;69977;49.414;11.010;2024-03-02T11:00:12;11.80;99.90
54461;DHT22;69977;49.414;11.010;2024-03-02T11:03:03;11.80;99.90
54461;DHT22;69977;49.414;11.010;2024-03-02T11:05:36;11.80;99.90
54461;DHT22;69977;49.414;11.010;2024-03-02T11:08:10;11.90;99.90
54461;DHT22;69977;49.414;11.010;2024-03-02T11:10:43;11.90;99.90
54461;DHT22;69977;49.414;11.010;2024-03-02T11:13:12;11.90;99.90
54461;DHT22;69977;49.414;11.010;2024-03-02T11:15:40;11.90;99.90
54461;DHT22;69977;49.414;11.010;2024-03-02T11:18:09;12.00;99.90
54461;DHT22;69977;49.414;11.010;2024-03-02T11:20:38;11.90;99.90
54461;DHT22;69977;49.414;11.010;2024-03-02T11:23:09;12.00;99.90
54461;DHT22;69977;49.414;11.010;2024-03-02T11:25:35;12.10;99.90
54461;DHT22;69977;49.414;11.010;2024-03-02T11:28:07;12.10;99.90
54461;DHT22;69977;49.414;11.010;2024-03-02T11:33:07;12.10;99.90
54461;DHT22;69977;49.414;11.010;2024-03-02T11:35:44;12.20;99.90
54461;DHT22;69977;49.414;11.010;2024-03-02T11:38:13;12.10;99.90
54461;DHT22;69977;49.414;11.010;2024-03-02T11:40:40;12.20;99.90
54461;DHT22;69977;49.414;11.010;2024-03-02T11:43:06;12.30;99.90
54461;DHT22;69977;49.414;11.010;2024-03-02T11:45:33;12.30;99.90
54461;DHT22;69977;49.414;11.010;2024-03-02T11:48:25;12.20;99.90
54461;DHT22;69977;49.414;11.010;2024-03-02T11:50:51;12.10;99.90
54461;DHT22;69977;49.414;11.010;2024-03-02T11:53:17;12.20;99.90
54461;DHT22;69977;49.414;11.010;2024-03-02T11:55:45;12.10;99.90
54461;DHT22;69977;49.414;11.010;2024-03-02T11:58:15;12.10;99.90
54461;DHT22;69977;49.414;11.010;2024-03-02T12:00:46;12.20;99.90
54461;DHT22;69977;49.414;11.010;2024-03-02T12:03:13;12.30;99.90
54461;DHT22;69977;49.414;11.010;2024-03-02T12:05:40;12.30;99.90
54461;DHT22;69977;49.414;11.010;2024-03-02T12:08:07;12.40;99.90
54461;DHT22;69977;49.414;11.010;2024-03-02T12:10:34;12.50;99.90
54461;DHT22;69977;49.414;11.010;2024-03-02T12:13:02;12.50;99.90
54461;DHT22;69977;49.414;11.010;2024-03-02T12:15:30;12.50;99.90
54461;DHT22;69977;49.414;11.010;2024-03-02T12:17:57;12.40;99.90
54461;DHT22;69977;49.414;11.010;2024-03-02T12:20:24;12.50;99.90
54461;DHT22;69977;49.414;11.010;2024-03-02T12:22:51;12.40;99.90
54461;DHT22;69977;49.414;11.010;2024-03-02T12:25:21;12.50;99.90
54461;DHT22;69977;49.414;11.010;2024-03-02T12:27:50;12.50;99.90
54461;DHT22;69977;49.414;11.010;2024-03-02T12:30:17;12.60;99.90
54461;DHT22;69977;49.414;11.010;2024-03-02T12:32:47;12.50;99.90
54461;DHT22;69977;49.414;11.010;2024-03-02T12:35:14;12.30;99.90
54461;DHT22;69977;49.414;11.010;2024-03-02T12:37:44;12.30;99.90
54461;DHT22;69977;49.414;11.010;2024-03-02T12:40:11;12.40;99.90
54461;DHT22;69977;49.414;11.010;2024-03-02T12:42:38;12.60;99.90
54461;DHT22;69977;49.414;11.010;2024-03-02T12:45:06;12.60;99.90
54461;DHT22;69977;49.414;11.010;2024-03-02T12:47:33;12.70;99.90
54461;DHT22;69977;49.414;11.010;2024-03-02T12:49:59;12.80;99.90
54461;DHT22;69977;49.414;11.010;2024-03-02T12:52:25;12.90;99.90
54461;DHT22;69977;49.414;11.010;2024-03-02T12:54:51;13.00;99.90
54461;DHT22;69977;49.414;11.010;2024-03-02T12:57:19;13.20;99.90
54461;DHT22;69977;49.414;11.010;2024-03-02T12:59:45;13.20;99.90
54461;DHT22;69977;49.414;11.010;2024-03-02T13:02:18;13.30;99.90
54461;DHT22;69977;49.414;11.010;2024-03-02T13:04:44;13.30;99.90
54461;DHT22;69977;49.414;11.010;2024-03-02T13:07:11;13.20;99.90
54461;DHT22;69977;49.414;11.010;2024-03-02T13:09:39;13.20;99.90
54461;DHT22;69977;49.414;11.010;2024-03-02T13:12:06;13.20;99.90
54461;DHT22;69977;49.414;11.010;2024-03-02T13:14:35;13.20;99.90
54461;DHT22;69977;49.414;11.010;2024-03-02T13:17:01;13.30;99.90
54461;DHT22;69977;49.414;11.010;2024-03-02T13:19:31;13.40;99.90
54461;DHT22;69977;49.414;11.010;2024-03-02T13:21:57;13.70;99.90
54461;DHT22;69977;49.414;11.010;2024-03-02T13:24:24;13.90;99.90
54461;DHT22;69977;49.414;11.010;2024-03-02T13:26:55;13.70;99.90
54461;DHT22;69977;49.414;11.010;2024-03-02T13:29:23;13.80;99.90
54461;DHT22;69977;49.414;11.010;2024-03-02T13:31:50;13.70;99.90
54461;DHT22;69977;49.414;11.010;2024-03-02T13:34:16;13.40;99.90
54461;DHT22;69977;49.414;11.010;2024-03-02T13:36:41;13.30;99.90
54461;DHT22;69977;49.414;11.010;2024-03-02T13:39:07;13.20;99.90
54461;DHT22;69977;49.414;11.010;2024-03-02T13:41:36;13.10;99.90
54461;DHT22;69977;49.414;11.010;2024-03-02T13:44:03;13.10;99.90
54461;DHT22;69977;49.414;11.010;2024-03-02T13:46:29;13.10;99.90
54461;DHT22;69977;49.414;11.010;2024-03-02T13:48:55;13.10;99.90
54461;DHT22;69977;49.414;11.010;2024-03-02T13:51:24;13.20;99.90
54461;DHT22;69977;49.414;11.010;2024-03-02T13:53:51;13.30;99.90
54461;DHT22;69977;49.414;11.010;2024-03-02T13:56:17;13.60;99.90
54461;DHT22;69977;49.414;11.010;2024-03-02T13:58:43;13.60;99.90
54461;DHT22;69977;49.414;11.010;2024-03-02T14:01:09;13.80;99.90
54461;DHT22;69977;49.414;11.010;2024-03-02T14:03:35;13.90;99.90
54461;DHT22;69977;49.414;11.010;2024-03-02T14:06:01;13.90;99.90
54461;DHT22;69977;49.414;11.010;2024-03-02T14:08:27;13.90;99.90
54461;DHT22;69977;49.414;11.010;2024-03-02T14:10:52;14.10;99.90
54461;DHT22;69977;49.414;11.010;2024-03-02T14:13:19;14.30;99.90
54461;DHT22;69977;49.414;11.010;2024-03-02T14:15:45;14.40;99.90
54461;DHT22;69977;49.414;11.010;2024-03-02T14:18:11;14.60;99.90
54461;DHT22;69977;49.414;11.010;2024-03-02T14:20:37;14.30;99.90
54461;DHT22;69977;49.414;11.010;2024-03-02T14:23:03;14.40;99.90
54461;DHT22;69977;49.414;11.010;2024-03-02T14:25:32;14.50;99.90
54461;DHT22;69977;49.414;11.010;2024-03-02T14:27:59;14.70;99.90
54461;DHT22;69977;49.414;11.010;2024-03-02T14:30:25;14.70;99.90
54461;DHT22;69977;49.414;11.010;2024-03-02T14:32:51;14.70;99.90
54461;DHT22;69977;49.414;11.010;2024-03-02T14:35:17;14.70;99.90
54461;DHT22;69977;49.414;11.010;2024-03-02T14:37:44;14.90;99.90
54461;DHT22;69977;49.414;11.010;2024-03-02T14:40:10;15.20;99.90
54461;DHT22;69977;49.414;11.010;2024-03-02T14:42:37;15.20;99.90
54461;DHT22;69977;49.414;11.010;2024-03-02T14:45:03;15.20;99.90
54461;DHT22;69977;49.414;11.010;2024-03-02T14:47:32;15.50;99.90
54461;DHT22;69977;49.414;11.010;2024-03-02T14:49:59;15.60;99.90
54461;DHT22;69977;49.414;11.010;2024-03-02T14:52:25;15.50;99.90
54461;DHT22;69977;49.414;11.010;2024-03-02T14:54:51;15.60;99.90
54461;DHT22;69977;49.414;11.010;2024-03-02T14:57:17;15.90;99.90
54461;DHT22;69977;49.414;11.010;2024-03-02T14:59:42;15.80;99.90
54461;DHT22;69977;49.414;11.010;2024-03-02T15:02:09;15.70;99.90
54461;DHT22;69977;49.414;11.010;2024-03-02T15:04:35;15.80;99.90
54461;DHT22;69977;49.414;11.010;2024-03-02T15:07:00;15.80;99.90
54461;DHT22;69977;49.414;11.010;2024-03-02T15:09:26;16.00;99.90
54461;DHT22;69977;49.414;11.010;2024-03-02T15:11:52;16.10;99.90
54461;DHT22;69977;49.414;11.010;2024-03-02T15:14:18;16.20;99.90
54461;DHT22;69977;49.414;11.010;2024-03-02T15:16:44;16.10;99.90
54461;DHT22;69977;49.414;11.010;2024-03-02T15:19:10;16.00;99.90
54461;DHT22;69977;49.414;11.010;2024-03-02T15:21:36;16.00;99.90
54461;DHT22;69977;49.414;11.010;2024-03-02T15:24:01;15.90;99.90
54461;DHT22;69977;49.414;11.010;2024-03-02T15:26:28;16.10;99.90
54461;DHT22;69977;49.414;11.010;2024-03-02T15:28:54;15.70;99.90
54461;DHT22;69977;49.414;11.010;2024-03-02T15:31:21;15.70;99.90
54461;DHT22;69977;49.414;11.010;2024-03-02T15:33:47;15.60;99.90